sensor_id;sensor_type;location;lat;lon;timestamp;P1;durP1;ratioP1;P2;durP2;ratioP2
84381;SDS011;74572;51.834;5.820;2024-02-04T00:01:44;12.65;;;6.63;;
84381;SDS011;74572;51.834;5.820;2024-02-04T00:04:10;12.52;;;5.15;;
84381;SDS011;74572;51.834;5.820;2024-02-04T00:06:35;13.17;;;5.93;;
84381;SDS011;74572;51.834;5.820;2024-02-04T00:09:01;11.02;;;5.60;;
84381;SDS011;74572;51.834;5.820;2024-02-04T00:11:28;15.27;;;6.22;;
84381;SDS011;74572;51.834;5.820;2024-02-04T00:13:54;14.45;;;7.80;;
84381;SDS011;74572;51.834;5.820;2024-02-04T00:16:20;14.15;;;6.65;;
84381;SDS011;74572;51.834;5.820;2024-02-04T00:18:45;14.70;;;6.97;;
84381;SDS011;74572;51.834;5.820;2024-02-04T00:21:10;12.15;;;6.70;;
84381;SDS011;74572;51.834;5.820;2024-02-04T00:23:38;13.25;;;6.85;;
84381;SDS011;74572;51.834;5.820;2024-02-04T00:26:04;16.77;;;8.60;;
84381;SDS011;74572;51.834;5.820;2024-02-04T00:28:29;14.70;;;7.80;;
84381;SDS011;74572;51.834;5.820;2024-02-04T00:30:54;13.65;;;6.50;;
84381;SDS011;74572;51.834;5.820;2024-02-04T00:33:23;13.77;;;7.22;;
84381;SDS011;74572;51.834;5.820;2024-02-04T00:35:49;14.43;;;6.57;;
84381;SDS011;74572;51.834;5.820;2024-02-04T00:38:17;17.25;;;9.07;;
84381;SDS011;74572;51.834;5.820;2024-02-04T00:40:42;12.30;;;5.82;;
84381;SDS011;74572;51.834;5.820;2024-02-04T00:43:07;11.80;;;5.60;;
84381;SDS011;74572;51.834;5.820;2024-02-04T00:45:33;14.57;;;6.32;;
84381;SDS011;74572;51.834;5.820;2024-02-04T00:48:00;13.13;;;5.60;;
84381;SDS011;74572;51.834;5.820;2024-02-04T00:50:25;15.40;;;7.77;;
84381;SDS011;74572;51.834;5.820;2024-02-04T00:52:50;17.73;;;7.70;;
84381;SDS011;74572;51.834;5.820;2024-02-04T00:55:18;14.30;;;6.13;;
84381;SDS011;74572;51.834;5.820;2024-02-04T00:57:44;12.80;;;6.82;;
84381;SDS011;74572;51.834;5.820;2024-02-04T01:00:10;15.35;;;8.07;;
84381;SDS011;74572;51.834;5.820;2024-02-04T01:02:37;18.55;;;8.23;;
84381;SDS011;74572;51.834;5.820;2024-02-04T01:05:03;16.90;;;8.05;;
84381;SDS011;74572;51.834;5.820;2024-02-04T01:07:30;15.73;;;7.10;;
84381;SDS011;74572;51.834;5.820;2024-02-04T01:09:55;17.23;;;8.05;;
84381;SDS011;74572;51.834;5.820;2024-02-04T01:12:22;17.50;;;7.40;;
84381;SDS011;74572;51.834;5.820;2024-02-04T01:14:48;19.38;;;8.00;;
84381;SDS011;74572;51.834;5.820;2024-02-04T01:17:13;17.90;;;7.20;;
84381;SDS011;74572;51.834;5.820;2024-02-04T01:19:38;20.15;;;8.25;;
84381;SDS011;74572;51.834;5.820;2024-02-04T01:22:04;21.38;;;8.80;;
84381;SDS011;74572;51.834;5.820;2024-02-04T01:24:31;17.80;;;6.45;;
84381;SDS011;74572;51.834;5.820;2024-02-04T01:26:56;21.83;;;8.57;;
84381;SDS011;74572;51.834;5.820;2024-02-04T01:29:23;17.75;;;7.63;;
84381;SDS011;74572;51.834;5.820;2024-02-04T01:31:50;21.17;;;9.20;;
84381;SDS011;74572;51.834;5.820;2024-02-04T01:34:16;23.63;;;9.27;;
84381;SDS011;74572;51.834;5.820;2024-02-04T01:36:41;17.80;;;8.35;;
84381;SDS011;74572;51.834;5.820;2024-02-04T01:39:07;22.53;;;9.13;;
84381;SDS011;74572;51.834;5.820;2024-02-04T01:41:33;25.08;;;9.15;;
84381;SDS011;74572;51.834;5.820;2024-02-04T01:44:00;18.75;;;9.25;;
84381;SDS011;74572;51.834;5.820;2024-02-04T01:46:25;23.67;;;9.47;;
84381;SDS011;74572;51.834;5.820;2024-02-04T01:48:51;19.17;;;8.32;;
84381;SDS011;74572;51.834;5.820;2024-02-04T01:51:17;20.33;;;8.50;;
84381;SDS011;74572;51.834;5.820;2024-02-04T01:53:45;20.60;;;8.88;;
84381;SDS011;74572;51.834;5.820;2024-02-04T01:56:11;21.42;;;8.30;;
84381;SDS011;74572;51.834;5.820;2024-02-04T01:58:38;23.80;;;8.52;;
84381;SDS011;74572;51.834;5.820;2024-02-04T02:01:05;27.63;;;8.95;;
84381;SDS011;74572;51.834;5.820;2024-02-04T02:03:33;24.10;;;9.65;;
84381;SDS011;74572;51.834;5.820;2024-02-04T02:06:02;22.60;;;9.15;;
84381;SDS011;74572;51.834;5.820;2024-02-04T02:08:28;25.20;;;8.38;;
84381;SDS011;74572;51.834;5.820;2024-02-04T02:10:57;24.17;;;8.80;;
84381;SDS011;74572;51.834;5.820;2024-02-04T02:13:44;26.77;;;10.40;;
84381;SDS011;74572;51.834;5.820;2024-02-04T02:16:15;24.10;;;8.63;;
84381;SDS011;74572;51.834;5.820;2024-02-04T02:18:46;27.88;;;8.68;;
84381;SDS011;74572;51.834;5.820;2024-02-04T02:24:14;22.95;;;8.73;;
84381;SDS011;74572;51.834;5.820;2024-02-04T02:26:48;24.77;;;9.35;;
84381;SDS011;74572;51.834;5.820;2024-02-04T02:29:16;24.73;;;8.85;;
84381;SDS011;74572;51.834;5.820;2024-02-04T02:31:42;24.80;;;9.18;;
84381;SDS011;74572;51.834;5.820;2024-02-04T02:34:08;27.77;;;10.70;;
84381;SDS011;74572;51.834;5.820;2024-02-04T02:36:45;23.77;;;10.80;;
84381;SDS011;74572;51.834;5.820;2024-02-04T02:39:24;25.55;;;10.43;;
84381;SDS011;74572;51.834;5.820;2024-02-04T02:41:54;32.05;;;12.25;;
84381;SDS011;74572;51.834;5.820;2024-02-04T02:44:23;31.77;;;10.82;;
84381;SDS011;74572;51.834;5.820;2024-02-04T02:46:52;27.25;;;11.05;;
84381;SDS011;74572;51.834;5.820;2024-02-04T02:49:22;28.08;;;11.82;;
84381;SDS011;74572;51.834;5.820;2024-02-04T02:51:48;30.02;;;11.57;;
84381;SDS011;74572;51.834;5.820;2024-02-04T02:54:13;27.00;;;11.23;;
84381;SDS011;74572;51.834;5.820;2024-02-04T02:56:38;27.98;;;9.80;;
84381;SDS011;74572;51.834;5.820;2024-02-04T02:59:05;27.63;;;10.13;;
84381;SDS011;74572;51.834;5.820;2024-02-04T03:01:34;25.02;;;8.90;;
84381;SDS011;74572;51.834;5.820;2024-02-04T03:03:59;29.92;;;10.40;;
84381;SDS011;74572;51.834;5.820;2024-02-04T03:06:26;30.27;;;10.90;;
84381;SDS011;74572;51.834;5.820;2024-02-04T03:08:52;28.35;;;11.18;;
84381;SDS011;74572;51.834;5.820;2024-02-04T03:11:17;25.43;;;9.20;;
84381;SDS011;74572;51.834;5.820;2024-02-04T03:13:42;24.58;;;8.48;;
84381;SDS011;74572;51.834;5.820;2024-02-04T03:16:11;18.77;;;7.93;;
84381;SDS011;74572;51.834;5.820;2024-02-04T03:18:40;22.20;;;8.68;;
84381;SDS011;74572;51.834;5.820;2024-02-04T03:21:15;25.73;;;10.45;;
84381;SDS011;74572;51.834;5.820;2024-02-04T03:23:43;26.33;;;10.02;;
84381;SDS011;74572;51.834;5.820;2024-02-04T03:26:15;24.73;;;10.25;;
84381;SDS011;74572;51.834;5.820;2024-02-04T03:28:44;29.55;;;11.20;;
84381;SDS011;74572;51.834;5.820;2024-02-04T03:31:09;26.35;;;11.25;;
84381;SDS011;74572;51.834;5.820;2024-02-04T03:33:35;33.95;;;11.05;;
84381;SDS011;74572;51.834;5.820;2024-02-04T03:36:01;25.95;;;10.23;;
84381;SDS011;74572;51.834;5.820;2024-02-04T03:38:26;29.33;;;11.15;;
84381;SDS011;74572;51.834;5.820;2024-02-04T03:40:52;24.02;;;9.80;;
84381;SDS011;74572;51.834;5.820;2024-02-04T03:43:18;26.00;;;10.80;;
84381;SDS011;74572;51.834;5.820;2024-02-04T03:45:45;27.00;;;10.25;;
84381;SDS011;74572;51.834;5.820;2024-02-04T03:48:11;28.77;;;11.45;;
84381;SDS011;74572;51.834;5.820;2024-02-04T03:50:36;30.05;;;11.30;;
84381;SDS011;74572;51.834;5.820;2024-02-04T03:53:02;23.50;;;10.05;;
84381;SDS011;74572;51.834;5.820;2024-02-04T03:55:27;31.85;;;11.18;;
84381;SDS011;74572;51.834;5.820;2024-02-04T03:57:55;22.00;;;9.27;;
84381;SDS011;74572;51.834;5.820;2024-02-04T04:00:24;21.15;;;10.13;;
84381;SDS011;74572;51.834;5.820;2024-02-04T04:02:49;19.67;;;7.95;;
84381;SDS011;74572;51.834;5.820;2024-02-04T04:05:15;19.83;;;8.30;;
84381;SDS011;74572;51.834;5.820;2024-02-04T04:07:40;21.60;;;7.75;;
84381;SDS011;74572;51.834;5.820;2024-02-04T04:10:06;19.77;;;8.52;;
84381;SDS011;74572;51.834;5.820;2024-02-04T04:12:32;21.63;;;8.70;;
84381;SDS011;74572;51.834;5.820;2024-02-04T04:14:59;18.83;;;9.88;;
84381;SDS011;74572;51.834;5.820;2024-02-04T04:17:24;20.50;;;8.80;;
84381;SDS011;74572;51.834;5.820;2024-02-04T04:19:50;26.20;;;9.10;;
84381;SDS011;74572;51.834;5.820;2024-02-04T04:22:16;23.25;;;9.35;;
84381;SDS011;74572;51.834;5.820;2024-02-04T04:24:41;18.38;;;8.00;;
84381;SDS011;74572;51.834;5.820;2024-02-04T04:27:07;28.05;;;10.20;;
84381;SDS011;74572;51.834;5.820;2024-02-04T04:29:32;25.05;;;9.50;;
84381;SDS011;74572;51.834;5.820;2024-02-04T04:31:58;25.27;;;10.00;;
84381;SDS011;74572;51.834;5.820;2024-02-04T04:34:23;19.77;;;8.60;;
84381;SDS011;74572;51.834;5.820;2024-02-04T04:36:48;26.97;;;9.80;;
84381;SDS011;74572;51.834;5.820;2024-02-04T04:39:14;24.88;;;9.73;;
84381;SDS011;74572;51.834;5.820;2024-02-04T04:41:41;22.50;;;10.02;;
84381;SDS011;74572;51.834;5.820;2024-02-04T04:44:09;21.95;;;10.02;;
84381;SDS011;74572;51.834;5.820;2024-02-04T04:46:37;26.30;;;9.95;;
84381;SDS011;74572;51.834;5.820;2024-02-04T04:49:06;22.15;;;9.07;;
84381;SDS011;74572;51.834;5.820;2024-02-04T04:51:31;24.35;;;8.80;;
84381;SDS011;74572;51.834;5.820;2024-02-04T04:53:57;27.73;;;9.82;;
84381;SDS011;74572;51.834;5.820;2024-02-04T04:56:23;22.88;;;10.13;;
84381;SDS011;74572;51.834;5.820;2024-02-04T04:58:48;18.63;;;7.68;;
84381;SDS011;74572;51.834;5.820;2024-02-04T05:01:14;19.25;;;7.60;;
84381;SDS011;74572;51.834;5.820;2024-02-04T05:03:40;24.80;;;8.50;;
84381;SDS011;74572;51.834;5.820;2024-02-04T05:06:06;17.42;;;6.93;;
84381;SDS011;74572;51.834;5.820;2024-02-04T05:08:31;16.35;;;6.25;;
84381;SDS011;74572;51.834;5.820;2024-02-04T05:10:56;16.93;;;6.43;;
84381;SDS011;74572;51.834;5.820;2024-02-04T05:13:22;20.58;;;8.20;;
84381;SDS011;74572;51.834;5.820;2024-02-04T05:15:48;15.75;;;8.05;;
84381;SDS011;74572;51.834;5.820;2024-02-04T05:18:14;16.40;;;6.00;;
84381;SDS011;74572;51.834;5.820;2024-02-04T05:20:39;17.33;;;7.85;;
84381;SDS011;74572;51.834;5.820;2024-02-04T05:23:05;17.65;;;6.97;;
84381;SDS011;74572;51.834;5.820;2024-02-04T05:25:30;17.58;;;7.47;;
84381;SDS011;74572;51.834;5.820;2024-02-04T05:27:56;15.15;;;5.97;;
84381;SDS011;74572;51.834;5.820;2024-02-04T05:30:22;14.13;;;6.40;;
84381;SDS011;74572;51.834;5.820;2024-02-04T05:32:47;21.35;;;8.30;;
84381;SDS011;74572;51.834;5.820;2024-02-04T05:35:13;20.02;;;6.95;;
84381;SDS011;74572;51.834;5.820;2024-02-04T05:37:39;18.92;;;6.80;;
84381;SDS011;74572;51.834;5.820;2024-02-04T05:40:05;23.98;;;8.23;;
84381;SDS011;74572;51.834;5.820;2024-02-04T05:42:31;18.05;;;7.30;;
84381;SDS011;74572;51.834;5.820;2024-02-04T05:44:57;18.48;;;7.57;;
84381;SDS011;74572;51.834;5.820;2024-02-04T05:47:22;16.85;;;6.80;;
84381;SDS011;74572;51.834;5.820;2024-02-04T05:49:48;14.02;;;6.07;;
84381;SDS011;74572;51.834;5.820;2024-02-04T05:52:14;19.35;;;7.18;;
84381;SDS011;74572;51.834;5.820;2024-02-04T05:54:40;18.95;;;6.95;;
84381;SDS011;74572;51.834;5.820;2024-02-04T05:57:05;11.88;;;5.10;;
84381;SDS011;74572;51.834;5.820;2024-02-04T05:59:33;14.18;;;5.72;;
84381;SDS011;74572;51.834;5.820;2024-02-04T06:01:59;14.00;;;6.45;;
84381;SDS011;74572;51.834;5.820;2024-02-04T06:04:24;18.73;;;7.15;;
84381;SDS011;74572;51.834;5.820;2024-02-04T06:06:50;13.98;;;6.45;;
84381;SDS011;74572;51.834;5.820;2024-02-04T06:09:16;21.58;;;7.00;;
84381;SDS011;74572;51.834;5.820;2024-02-04T06:11:44;11.57;;;4.57;;
84381;SDS011;74572;51.834;5.820;2024-02-04T06:14:11;18.02;;;6.50;;
84381;SDS011;74572;51.834;5.820;2024-02-04T06:16:38;14.52;;;7.13;;
84381;SDS011;74572;51.834;5.820;2024-02-04T06:19:05;15.90;;;6.55;;
84381;SDS011;74572;51.834;5.820;2024-02-04T06:21:33;20.42;;;7.18;;
84381;SDS011;74572;51.834;5.820;2024-02-04T06:23:59;17.67;;;5.82;;
84381;SDS011;74572;51.834;5.820;2024-02-04T06:26:26;15.95;;;7.22;;
84381;SDS011;74572;51.834;5.820;2024-02-04T06:28:51;16.27;;;6.85;;
84381;SDS011;74572;51.834;5.820;2024-02-04T06:31:18;16.45;;;5.97;;
84381;SDS011;74572;51.834;5.820;2024-02-04T06:33:43;17.77;;;6.97;;
84381;SDS011;74572;51.834;5.820;2024-02-04T06:36:09;10.95;;;5.93;;
84381;SDS011;74572;51.834;5.820;2024-02-04T06:38:36;13.43;;;6.03;;
84381;SDS011;74572;51.834;5.820;2024-02-04T06:41:01;20.45;;;7.22;;
84381;SDS011;74572;51.834;5.820;2024-02-04T06:43:27;17.58;;;7.03;;
84381;SDS011;74572;51.834;5.820;2024-02-04T06:45:53;14.45;;;5.82;;
84381;SDS011;74572;51.834;5.820;2024-02-04T06:48:19;18.48;;;6.15;;
84381;SDS011;74572;51.834;5.820;2024-02-04T06:50:45;11.57;;;5.93;;
84381;SDS011;74572;51.834;5.820;2024-02-04T06:53:14;20.02;;;7.30;;
84381;SDS011;74572;51.834;5.820;2024-02-04T06:55:40;16.40;;;7.15;;
84381;SDS011;74572;51.834;5.820;2024-02-04T06:58:05;13.50;;;6.50;;
84381;SDS011;74572;51.834;5.820;2024-02-04T07:00:31;14.25;;;6.38;;
84381;SDS011;74572;51.834;5.820;2024-02-04T07:02:56;12.77;;;5.82;;
84381;SDS011;74572;51.834;5.820;2024-02-04T07:05:23;13.43;;;6.57;;
84381;SDS011;74572;51.834;5.820;2024-02-04T07:07:50;16.55;;;7.05;;
84381;SDS011;74572;51.834;5.820;2024-02-04T07:10:16;17.35;;;6.90;;
84381;SDS011;74572;51.834;5.820;2024-02-04T07:12:41;19.38;;;6.72;;
84381;SDS011;74572;51.834;5.820;2024-02-04T07:15:07;14.68;;;5.80;;
84381;SDS011;74572;51.834;5.820;2024-02-04T07:17:34;17.23;;;6.85;;
84381;SDS011;74572;51.834;5.820;2024-02-04T07:20:01;16.40;;;6.65;;
84381;SDS011;74572;51.834;5.820;2024-02-04T07:22:26;12.10;;;5.38;;
84381;SDS011;74572;51.834;5.820;2024-02-04T07:24:52;17.17;;;5.90;;
84381;SDS011;74572;51.834;5.820;2024-02-04T07:27:17;16.08;;;6.05;;
84381;SDS011;74572;51.834;5.820;2024-02-04T07:29:44;9.90;;;4.43;;
84381;SDS011;74572;51.834;5.820;2024-02-04T07:32:09;11.85;;;5.15;;
84381;SDS011;74572;51.834;5.820;2024-02-04T07:34:35;10.13;;;4.78;;
84381;SDS011;74572;51.834;5.820;2024-02-04T07:37:01;11.27;;;5.00;;
84381;SDS011;74572;51.834;5.820;2024-02-04T07:39:27;7.05;;;3.75;;
84381;SDS011;74572;51.834;5.820;2024-02-04T07:41:52;12.00;;;5.53;;
84381;SDS011;74572;51.834;5.820;2024-02-04T07:44:19;10.38;;;4.68;;
84381;SDS011;74572;51.834;5.820;2024-02-04T07:46:46;11.02;;;4.93;;
84381;SDS011;74572;51.834;5.820;2024-02-04T07:49:11;12.38;;;4.95;;
84381;SDS011;74572;51.834;5.820;2024-02-04T07:51:38;12.50;;;5.20;;
84381;SDS011;74572;51.834;5.820;2024-02-04T07:54:04;10.63;;;4.47;;
84381;SDS011;74572;51.834;5.820;2024-02-04T07:56:30;14.02;;;4.93;;
84381;SDS011;74572;51.834;5.820;2024-02-04T07:58:55;10.70;;;3.85;;
84381;SDS011;74572;51.834;5.820;2024-02-04T08:01:22;10.68;;;4.88;;
84381;SDS011;74572;51.834;5.820;2024-02-04T08:03:48;9.73;;;4.40;;
84381;SDS011;74572;51.834;5.820;2024-02-04T08:06:14;11.32;;;4.15;;
84381;SDS011;74572;51.834;5.820;2024-02-04T08:08:40;8.18;;;3.42;;
84381;SDS011;74572;51.834;5.820;2024-02-04T08:11:07;8.73;;;3.65;;
84381;SDS011;74572;51.834;5.820;2024-02-04T08:13:32;6.10;;;2.90;;
84381;SDS011;74572;51.834;5.820;2024-02-04T08:15:58;6.50;;;2.33;;
84381;SDS011;74572;51.834;5.820;2024-02-04T08:18:24;7.03;;;2.25;;
84381;SDS011;74572;51.834;5.820;2024-02-04T08:20:49;6.40;;;1.73;;
84381;SDS011;74572;51.834;5.820;2024-02-04T08:23:15;6.20;;;1.67;;
84381;SDS011;74572;51.834;5.820;2024-02-04T08:25:41;6.30;;;1.10;;
84381;SDS011;74572;51.834;5.820;2024-02-04T08:28:09;2.17;;;0.90;;
84381;SDS011;74572;51.834;5.820;2024-02-04T08:30:35;2.13;;;0.95;;
84381;SDS011;74572;51.834;5.820;2024-02-04T08:33:02;3.88;;;1.20;;
84381;SDS011;74572;51.834;5.820;2024-02-04T08:35:27;3.13;;;1.15;;
84381;SDS011;74572;51.834;5.820;2024-02-04T08:37:53;5.32;;;1.08;;
84381;SDS011;74572;51.834;5.820;2024-02-04T08:40:19;3.80;;;1.25;;
84381;SDS011;74572;51.834;5.820;2024-02-04T08:42:45;1.50;;;1.02;;
84381;SDS011;74572;51.834;5.820;2024-02-04T08:45:11;2.67;;;1.30;;
84381;SDS011;74572;51.834;5.820;2024-02-04T08:47:36;2.55;;;1.20;;
84381;SDS011;74572;51.834;5.820;2024-02-04T08:50:02;5.78;;;1.60;;
84381;SDS011;74572;51.834;5.820;2024-02-04T08:52:27;5.18;;;2.13;;
84381;SDS011;74572;51.834;5.820;2024-02-04T08:54:56;5.20;;;1.98;;
84381;SDS011;74572;51.834;5.820;2024-02-04T08:57:23;6.78;;;2.30;;
84381;SDS011;74572;51.834;5.820;2024-02-04T08:59:50;6.07;;;2.17;;
84381;SDS011;74572;51.834;5.820;2024-02-04T09:02:16;5.15;;;2.85;;
84381;SDS011;74572;51.834;5.820;2024-02-04T09:04:41;6.90;;;3.08;;
84381;SDS011;74572;51.834;5.820;2024-02-04T09:07:08;8.52;;;3.25;;
84381;SDS011;74572;51.834;5.820;2024-02-04T09:09:35;7.57;;;4.53;;
84381;SDS011;74572;51.834;5.820;2024-02-04T09:12:00;12.20;;;3.65;;
84381;SDS011;74572;51.834;5.820;2024-02-04T09:14:27;11.23;;;3.25;;
84381;SDS011;74572;51.834;5.820;2024-02-04T09:16:54;8.57;;;3.22;;
84381;SDS011;74572;51.834;5.820;2024-02-04T09:19:19;6.13;;;2.63;;
84381;SDS011;74572;51.834;5.820;2024-02-04T09:21:45;6.93;;;2.70;;
84381;SDS011;74572;51.834;5.820;2024-02-04T09:24:10;6.15;;;2.83;;
84381;SDS011;74572;51.834;5.820;2024-02-04T09:26:36;6.22;;;2.63;;
84381;SDS011;74572;51.834;5.820;2024-02-04T09:29:01;6.95;;;3.78;;
84381;SDS011;74572;51.834;5.820;2024-02-04T09:31:27;5.55;;;2.55;;
84381;SDS011;74572;51.834;5.820;2024-02-04T09:33:53;5.25;;;2.03;;
84381;SDS011;74572;51.834;5.820;2024-02-04T09:36:20;6.32;;;2.75;;
84381;SDS011;74572;51.834;5.820;2024-02-04T09:38:47;5.30;;;2.72;;
84381;SDS011;74572;51.834;5.820;2024-02-04T09:41:12;3.60;;;1.73;;
84381;SDS011;74572;51.834;5.820;2024-02-04T09:43:38;3.75;;;1.85;;
84381;SDS011;74572;51.834;5.820;2024-02-04T09:46:04;4.80;;;2.13;;
84381;SDS011;74572;51.834;5.820;2024-02-04T09:48:30;6.03;;;1.80;;
84381;SDS011;74572;51.834;5.820;2024-02-04T09:50:57;3.65;;;1.63;;
84381;SDS011;74572;51.834;5.820;2024-02-04T09:53:31;3.92;;;1.60;;
84381;SDS011;74572;51.834;5.820;2024-02-04T09:55:59;3.72;;;1.50;;
84381;SDS011;74572;51.834;5.820;2024-02-04T09:58:27;3.53;;;1.58;;
84381;SDS011;74572;51.834;5.820;2024-02-04T10:00:53;3.03;;;1.17;;
84381;SDS011;74572;51.834;5.820;2024-02-04T10:03:19;3.33;;;1.42;;
84381;SDS011;74572;51.834;5.820;2024-02-04T10:05:46;3.47;;;1.38;;
84381;SDS011;74572;51.834;5.820;2024-02-04T10:08:12;2.95;;;1.50;;
84381;SDS011;74572;51.834;5.820;2024-02-04T10:10:38;3.78;;;1.35;;
84381;SDS011;74572;51.834;5.820;2024-02-04T10:13:10;3.38;;;1.20;;
84381;SDS011;74572;51.834;5.820;2024-02-04T10:15:37;2.60;;;1.02;;
84381;SDS011;74572;51.834;5.820;2024-02-04T10:18:03;1.83;;;1.20;;
84381;SDS011;74572;51.834;5.820;2024-02-04T10:20:30;4.75;;;1.88;;
84381;SDS011;74572;51.834;5.820;2024-02-04T10:22:56;3.22;;;1.10;;
84381;SDS011;74572;51.834;5.820;2024-02-04T10:25:21;4.97;;;1.20;;
84381;SDS011;74572;51.834;5.820;2024-02-04T10:27:47;3.15;;;1.30;;
84381;SDS011;74572;51.834;5.820;2024-02-04T10:30:12;2.67;;;1.48;;
84381;SDS011;74572;51.834;5.820;2024-02-04T10:32:39;4.85;;;1.10;;
84381;SDS011;74572;51.834;5.820;2024-02-04T10:35:07;2.55;;;1.38;;
84381;SDS011;74572;51.834;5.820;2024-02-04T10:37:33;3.33;;;1.50;;
84381;SDS011;74572;51.834;5.820;2024-02-04T10:39:59;3.60;;;1.05;;
84381;SDS011;74572;51.834;5.820;2024-02-04T10:42:26;3.25;;;0.90;;
84381;SDS011;74572;51.834;5.820;2024-02-04T10:44:54;4.15;;;1.00;;
84381;SDS011;74572;51.834;5.820;2024-02-04T10:47:24;2.75;;;1.00;;
84381;SDS011;74572;51.834;5.820;2024-02-04T10:49:55;2.13;;;1.00;;
84381;SDS011;74572;51.834;5.820;2024-02-04T10:52:23;3.92;;;0.68;;
84381;SDS011;74572;51.834;5.820;2024-02-04T10:54:52;4.90;;;0.88;;
84381;SDS011;74572;51.834;5.820;2024-02-04T10:57:21;1.65;;;0.70;;
84381;SDS011;74572;51.834;5.820;2024-02-04T10:59:51;1.85;;;1.15;;
84381;SDS011;74572;51.834;5.820;2024-02-04T11:02:17;1.17;;;0.57;;
84381;SDS011;74572;51.834;5.820;2024-02-04T11:04:48;0.80;;;0.40;;
84381;SDS011;74572;51.834;5.820;2024-02-04T11:07:14;3.58;;;0.88;;
84381;SDS011;74572;51.834;5.820;2024-02-04T11:09:42;0.80;;;0.50;;
84381;SDS011;74572;51.834;5.820;2024-02-04T11:12:13;2.30;;;0.70;;
84381;SDS011;74572;51.834;5.820;2024-02-04T11:14:43;2.85;;;0.70;;
84381;SDS011;74572;51.834;5.820;2024-02-04T11:23:17;2.20;;;0.90;;
84381;SDS011;74572;51.834;5.820;2024-02-04T11:26:01;1.50;;;0.85;;
84381;SDS011;74572;51.834;5.820;2024-02-04T11:28:29;1.90;;;1.00;;
84381;SDS011;74572;51.834;5.820;2024-02-04T11:30:55;2.10;;;1.00;;
84381;SDS011;74572;51.834;5.820;2024-02-04T11:33:21;2.50;;;0.98;;
84381;SDS011;74572;51.834;5.820;2024-02-04T11:36:06;3.33;;;1.30;;
84381;SDS011;74572;51.834;5.820;2024-02-04T11:38:35;2.40;;;1.23;;
84381;SDS011;74572;51.834;5.820;2024-02-04T11:41:03;2.33;;;1.40;;
84381;SDS011;74572;51.834;5.820;2024-02-04T11:43:31;4.68;;;1.70;;
84381;SDS011;74572;51.834;5.820;2024-02-04T11:45:58;3.47;;;1.45;;
84381;SDS011;74572;51.834;5.820;2024-02-04T11:48:30;6.03;;;1.90;;
84381;SDS011;74572;51.834;5.820;2024-02-04T11:50:58;4.25;;;1.83;;
84381;SDS011;74572;51.834;5.820;2024-02-04T11:53:27;3.10;;;1.90;;
84381;SDS011;74572;51.834;5.820;2024-02-04T11:55:57;2.55;;;1.38;;
84381;SDS011;74572;51.834;5.820;2024-02-04T11:58:26;2.85;;;1.52;;
84381;SDS011;74572;51.834;5.820;2024-02-04T12:00:53;3.63;;;1.60;;
84381;SDS011;74572;51.834;5.820;2024-02-04T12:03:31;3.20;;;1.60;;
84381;SDS011;74572;51.834;5.820;2024-02-04T12:06:02;3.00;;;1.25;;
84381;SDS011;74572;51.834;5.820;2024-02-04T12:08:30;4.78;;;1.50;;
84381;SDS011;74572;51.834;5.820;2024-02-04T12:10:57;3.83;;;1.00;;
84381;SDS011;74572;51.834;5.820;2024-02-04T12:13:24;3.22;;;1.40;;
84381;SDS011;74572;51.834;5.820;2024-02-04T12:15:50;2.85;;;1.15;;
84381;SDS011;74572;51.834;5.820;2024-02-04T12:18:16;5.43;;;1.80;;
84381;SDS011;74572;51.834;5.820;2024-02-04T12:20:45;2.85;;;1.35;;
84381;SDS011;74572;51.834;5.820;2024-02-04T12:23:12;5.80;;;1.45;;
84381;SDS011;74572;51.834;5.820;2024-02-04T12:25:38;3.72;;;1.23;;
84381;SDS011;74572;51.834;5.820;2024-02-04T12:28:03;2.75;;;1.17;;
84381;SDS011;74572;51.834;5.820;2024-02-04T12:30:30;4.88;;;1.10;;
84381;SDS011;74572;51.834;5.820;2024-02-04T12:32:58;3.30;;;1.23;;
84381;SDS011;74572;51.834;5.820;2024-02-04T12:35:27;2.13;;;1.13;;
84381;SDS011;74572;51.834;5.820;2024-02-04T12:37:54;6.90;;;1.40;;
84381;SDS011;74572;51.834;5.820;2024-02-04T12:40:24;5.25;;;1.50;;
84381;SDS011;74572;51.834;5.820;2024-02-04T12:43:01;6.43;;;1.20;;
84381;SDS011;74572;51.834;5.820;2024-02-04T12:45:27;4.65;;;1.70;;
84381;SDS011;74572;51.834;5.820;2024-02-04T12:47:54;6.60;;;1.60;;
84381;SDS011;74572;51.834;5.820;2024-02-04T12:50:21;3.25;;;1.17;;
84381;SDS011;74572;51.834;5.820;2024-02-04T12:53:06;3.22;;;0.77;;
84381;SDS011;74572;51.834;5.820;2024-02-04T12:55:34;4.18;;;1.48;;
84381;SDS011;74572;51.834;5.820;2024-02-04T12:58:06;4.45;;;1.58;;
84381;SDS011;74572;51.834;5.820;2024-02-04T13:00:39;7.03;;;1.50;;
84381;SDS011;74572;51.834;5.820;2024-02-04T13:03:07;4.10;;;1.50;;
84381;SDS011;74572;51.834;5.820;2024-02-04T13:05:33;8.05;;;2.05;;
84381;SDS011;74572;51.834;5.820;2024-02-04T13:08:00;8.35;;;1.90;;
84381;SDS011;74572;51.834;5.820;2024-02-04T13:13:04;6.38;;;1.63;;
84381;SDS011;74572;51.834;5.820;2024-02-04T13:15:37;4.93;;;1.55;;
84381;SDS011;74572;51.834;5.820;2024-02-04T13:18:04;5.30;;;1.83;;
84381;SDS011;74572;51.834;5.820;2024-02-04T13:20:30;5.43;;;1.60;;
84381;SDS011;74572;51.834;5.820;2024-02-04T13:22:55;4.20;;;1.85;;
84381;SDS011;74572;51.834;5.820;2024-02-04T13:25:23;4.43;;;1.30;;
84381;SDS011;74572;51.834;5.820;2024-02-04T13:27:51;4.32;;;1.50;;
84381;SDS011;74572;51.834;5.820;2024-02-04T13:30:17;7.43;;;2.33;;
84381;SDS011;74572;51.834;5.820;2024-02-04T13:32:44;6.55;;;1.58;;
84381;SDS011;74572;51.834;5.820;2024-02-04T13:35:10;10.88;;;2.20;;
84381;SDS011;74572;51.834;5.820;2024-02-04T13:37:41;6.38;;;2.15;;
84381;SDS011;74572;51.834;5.820;2024-02-04T13:40:11;4.53;;;1.63;;
84381;SDS011;74572;51.834;5.820;2024-02-04T13:42:38;3.25;;;1.58;;
84381;SDS011;74572;51.834;5.820;2024-02-04T13:45:04;7.10;;;1.50;;
84381;SDS011;74572;51.834;5.820;2024-02-04T13:47:30;7.82;;;1.95;;
84381;SDS011;74572;51.834;5.820;2024-02-04T13:49:56;3.17;;;2.03;;
84381;SDS011;74572;51.834;5.820;2024-02-04T13:52:21;4.53;;;1.50;;
84381;SDS011;74572;51.834;5.820;2024-02-04T13:54:47;5.07;;;1.15;;
84381;SDS011;74572;51.834;5.820;2024-02-04T13:57:13;3.30;;;1.20;;
84381;SDS011;74572;51.834;5.820;2024-02-04T13:59:38;5.30;;;1.00;;
84381;SDS011;74572;51.834;5.820;2024-02-04T14:02:05;3.78;;;1.38;;
84381;SDS011;74572;51.834;5.820;2024-02-04T14:04:33;2.85;;;1.15;;
84381;SDS011;74572;51.834;5.820;2024-02-04T14:06:59;5.47;;;1.02;;
84381;SDS011;74572;51.834;5.820;2024-02-04T14:09:24;6.80;;;1.10;;
84381;SDS011;74572;51.834;5.820;2024-02-04T14:11:51;6.35;;;1.30;;
84381;SDS011;74572;51.834;5.820;2024-02-04T14:14:22;6.15;;;1.48;;
84381;SDS011;74572;51.834;5.820;2024-02-04T14:16:49;4.72;;;1.40;;
84381;SDS011;74572;51.834;5.820;2024-02-04T14:19:14;2.95;;;1.23;;
84381;SDS011;74572;51.834;5.820;2024-02-04T14:21:43;3.92;;;1.20;;
84381;SDS011;74572;51.834;5.820;2024-02-04T14:24:09;8.15;;;1.63;;
84381;SDS011;74572;51.834;5.820;2024-02-04T14:26:35;4.50;;;1.42;;
84381;SDS011;74572;51.834;5.820;2024-02-04T14:29:00;4.22;;;1.33;;
84381;SDS011;74572;51.834;5.820;2024-02-04T14:31:26;4.55;;;1.63;;
84381;SDS011;74572;51.834;5.820;2024-02-04T14:33:52;7.05;;;1.75;;
84381;SDS011;74572;51.834;5.820;2024-02-04T14:36:17;4.97;;;1.50;;
84381;SDS011;74572;51.834;5.820;2024-02-04T14:38:44;5.13;;;1.00;;
84381;SDS011;74572;51.834;5.820;2024-02-04T14:41:10;8.95;;;2.13;;
84381;SDS011;74572;51.834;5.820;2024-02-04T14:43:35;5.30;;;1.25;;
84381;SDS011;74572;51.834;5.820;2024-02-04T14:46:02;3.47;;;0.93;;
84381;SDS011;74572;51.834;5.820;2024-02-04T14:48:28;7.40;;;1.20;;